createdAt,value
2022-10-05T00:00:25.086Z,97078.34
2022-10-05T00:03:22.714Z,97082.91
2022-10-05T00:06:19.552Z,97082.31
2022-10-05T00:09:21.531Z,97084.19
2022-10-05T00:12:21.325Z,97070.28
2022-10-05T00:15:20.638Z,97076.91
2022-10-05T00:18:21.161Z,97074.84
2022-10-05T00:21:28.870Z,97059.06
2022-10-05T00:24:25.808Z,97059.97
2022-10-05T00:27:37.940Z,97066.59
2022-10-05T00:30:35.051Z,97071.66
2022-10-05T00:33:31.961Z,97065.66
2022-10-05T00:36:28.971Z,97067.84
2022-10-05T00:39:26.012Z,97074.50
2022-10-05T00:42:38.307Z,97069.00
2022-10-05T00:45:50.798Z,97076.38
2022-10-05T00:49:25.233Z,97083.84
2022-10-05T00:52:43.578Z,97077.84
2022-10-05T00:55:42.982Z,97075.28
2022-10-05T00:58:59.124Z,97058.59
2022-10-05T01:02:22.382Z,97070.81
2022-10-05T01:05:55.013Z,97076.13
2022-10-05T01:09:22.533Z,97078.09
2022-10-05T01:12:45.748Z,97086.16
2022-10-05T01:16:13.112Z,97082.06
2022-10-05T01:19:56.159Z,97075.75
2022-10-05T01:23:17.875Z,97050.47
2022-10-05T01:26:38.863Z,97048.13
2022-10-05T01:29:40.720Z,97036.56
2022-10-05T01:32:59.788Z,97034.91
2022-10-05T01:36:14.323Z,97035.06
2022-10-05T01:39:22.321Z,97047.06
2022-10-05T01:42:43.578Z,97034.47
2022-10-05T01:46:02.554Z,97040.19
2022-10-05T01:49:20.423Z,97046.13
2022-10-05T01:52:33.057Z,97046.94
2022-10-05T01:55:54.271Z,97038.84
2022-10-05T01:59:32.245Z,97030.94
2022-10-05T02:02:31.645Z,97030.78
2022-10-05T02:05:53.239Z,97026.84
2022-10-05T02:09:05.311Z,97025.19
2022-10-05T02:12:11.764Z,97021.31
2022-10-05T02:15:18.254Z,97009.56
2022-10-05T02:18:21.372Z,97013.03
2022-10-05T02:21:21.283Z,97027.81
2022-10-05T02:24:24.761Z,97020.03
2022-10-05T02:27:54.212Z,97023.38
2022-10-05T02:31:05.350Z,97029.41
2022-10-05T02:34:35.831Z,97028.06
2022-10-05T02:37:54.242Z,97034.81
2022-10-05T02:40:58.437Z,97029.50
2022-10-05T02:44:26.857Z,97018.66
2022-10-05T02:47:42.535Z,97017.38
2022-10-05T02:51:08.035Z,97015.50
2022-10-05T02:54:26.025Z,97006.44
2022-10-05T02:57:36.006Z,97004.06
2022-10-05T03:00:42.843Z,97001.94
2022-10-05T03:03:57.723Z,96992.94
2022-10-05T03:07:23.262Z,96978.81
2022-10-05T03:10:54.803Z,96978.81
2022-10-05T03:14:26.897Z,96974.63
2022-10-05T03:17:30.939Z,96968.88
2022-10-05T03:20:46.755Z,96964.28
2022-10-05T03:24:23.142Z,96959.28
2022-10-05T03:27:55.383Z,96960.34
2022-10-05T03:31:20.821Z,96965.16
2022-10-05T03:34:41.347Z,96966.75
2022-10-05T03:37:59.145Z,96962.72
2022-10-05T03:41:21.720Z,96966.16
2022-10-05T03:45:08.632Z,96958.19
2022-10-05T03:48:15.566Z,96955.81
2022-10-05T03:51:19.283Z,96962.19
2022-10-05T03:54:37.760Z,96960.09
2022-10-05T03:57:38.780Z,96972.28
2022-10-05T04:00:38.897Z,96966.44
2022-10-05T04:03:48.571Z,96972.28
2022-10-05T04:06:51.356Z,96966.50
2022-10-05T04:09:53.021Z,96968.00
2022-10-05T04:13:44.683Z,96967.22
2022-10-05T04:17:06.679Z,96968.84
2022-10-05T04:20:48.936Z,96970.38
2022-10-05T04:24:17.989Z,96971.72
2022-10-05T04:27:32.211Z,96961.06
2022-10-05T04:30:33.648Z,96967.41
2022-10-05T04:33:32.109Z,96971.13
2022-10-05T04:36:49.237Z,96965.81
2022-10-05T04:40:23.973Z,96964.28
2022-10-05T04:44:05.297Z,96972.22
2022-10-05T04:47:51.059Z,96967.75
2022-10-05T04:51:29.622Z,96963.94
2022-10-05T04:55:04.383Z,96964.94
2022-10-05T04:58:18.323Z,96965.25
2022-10-05T05:01:55.645Z,96963.16
2022-10-05T05:05:02.367Z,96958.91
2022-10-05T05:08:28.012Z,96960.81
2022-10-05T05:11:53.705Z,96962.97
2022-10-05T05:15:14.397Z,96957.88
2022-10-05T05:18:41.673Z,96963.38
2022-10-05T05:22:04.135Z,96966.03
2022-10-05T05:25:51.667Z,96982.41
2022-10-05T05:29:05.520Z,96978.78
2022-10-05T05:32:38.953Z,96981.97
2022-10-05T05:36:29.771Z,96973.47
2022-10-05T05:39:36.675Z,96976.66
2022-10-05T05:43:18.299Z,96973.31
2022-10-05T05:47:01.896Z,96970.81
2022-10-05T05:50:30.414Z,96971.75
2022-10-05T05:53:40.830Z,96965.56
2022-10-05T05:56:51.843Z,96969.06
2022-10-05T06:00:14.716Z,96964.56
2022-10-05T06:03:16.038Z,96968.53
2022-10-05T06:06:25.521Z,96978.66
2022-10-05T06:09:47.142Z,96984.78
2022-10-05T06:12:47.687Z,96974.22
2022-10-05T06:16:01.925Z,96969.78
2022-10-05T06:19:18.907Z,96972.72
2022-10-05T06:22:27.968Z,96964.22
2022-10-05T06:25:58.708Z,96976.69
2022-10-05T06:29:03.672Z,96987.28
2022-10-05T06:32:20.835Z,96977.69
2022-10-05T06:36:02.255Z,96987.44
2022-10-05T06:39:15.624Z,96980.44
2022-10-05T06:42:56.918Z,96993.53
2022-10-05T06:46:55.721Z,96996.16
2022-10-05T06:50:12.949Z,97000.88
2022-10-05T06:53:35.389Z,97008.31
2022-10-05T06:56:40.525Z,96999.44
2022-10-05T07:00:01.960Z,97000.34
2022-10-05T07:03:35.724Z,96996.25
2022-10-05T07:07:07.198Z,96994.34
2022-10-05T07:10:29.844Z,96985.78
2022-10-05T07:14:13.444Z,96981.75
2022-10-05T07:17:51.129Z,96987.66
2022-10-05T07:21:23.792Z,96983.16
2022-10-05T07:24:42.453Z,96993.66
2022-10-05T07:28:12.792Z,96995.13
2022-10-05T07:31:24.336Z,96994.63
2022-10-05T07:34:39.144Z,96990.75
2022-10-05T07:38:00.099Z,96984.81
2022-10-05T07:41:10.977Z,96979.59
2022-10-05T07:44:19.530Z,96988.09
2022-10-05T07:47:39.313Z,96990.94
2022-10-05T07:50:49.330Z,96996.38
2022-10-05T07:54:03.906Z,96996.88
2022-10-05T07:57:48.018Z,96993.84
2022-10-05T08:01:21.992Z,96985.47
2022-10-05T08:04:31.560Z,96977.66
2022-10-05T08:07:32.751Z,96986.69
2022-10-05T08:10:51.939Z,96987.56
2022-10-05T08:14:02.228Z,96976.78
2022-10-05T08:17:08.861Z,96980.53
2022-10-05T08:20:25.413Z,96980.06
2022-10-05T08:23:58.238Z,96979.56
2022-10-05T08:27:46.847Z,96974.91
2022-10-05T08:31:23.310Z,96969.28
2022-10-05T08:34:28.456Z,96966.53
2022-10-05T08:37:32.233Z,96968.59
2022-10-05T08:41:28.929Z,96975.16
2022-10-05T08:45:44.464Z,96967.81
2022-10-05T08:49:14.838Z,96970.16
2022-10-05T08:52:31.467Z,96975.47
2022-10-05T08:56:19.876Z,96977.75
2022-10-05T08:59:44.906Z,96970.38
2022-10-05T09:03:17.549Z,96968.56
2022-10-05T09:06:58.856Z,96970.06
2022-10-05T09:10:14.528Z,96967.78
2022-10-05T09:13:38.598Z,96975.66
2022-10-05T09:16:54.284Z,96960.81
2022-10-05T09:20:30.633Z,96965.50
2022-10-05T09:23:40.311Z,96959.69
2022-10-05T09:27:00.436Z,96961.88
2022-10-05T09:30:25.293Z,96963.72
2022-10-05T09:33:53.139Z,96961.53
2022-10-05T09:37:13.824Z,96960.47
2022-10-05T09:40:47.605Z,96956.28
2022-10-05T09:44:36.283Z,96948.59
2022-10-05T09:48:23.756Z,96942.72
2022-10-05T09:52:03.802Z,96945.88
2022-10-05T09:55:21.964Z,96938.03
2022-10-05T09:59:06.476Z,96930.50
2022-10-05T10:02:20.530Z,96921.78
2022-10-05T10:06:06.344Z,96924.16
2022-10-05T10:09:28.277Z,96916.69
2022-10-05T10:13:28.507Z,96914.56
2022-10-05T10:17:02.612Z,96915.94
2022-10-05T10:20:19.762Z,96922.22
2022-10-05T10:23:47.417Z,96907.22
2022-10-05T10:27:16.341Z,96911.03
2022-10-05T10:30:36.411Z,96904.03
2022-10-05T10:34:05.986Z,96907.97
2022-10-05T10:37:24.153Z,96908.28
2022-10-05T10:40:51.446Z,96907.03
2022-10-05T10:44:22.792Z,96915.63
2022-10-05T10:47:44.145Z,96911.03
2022-10-05T10:51:10.778Z,96911.16
2022-10-05T10:54:31.507Z,96918.78
2022-10-05T10:58:16.388Z,96915.75
2022-10-05T11:01:41.852Z,96908.47
2022-10-05T11:05:19.401Z,96901.88
2022-10-05T11:08:43.678Z,96897.13
2022-10-05T11:11:56.121Z,96892.00
2022-10-05T11:14:58.627Z,96896.69
2022-10-05T11:18:02.800Z,96895.97
2022-10-05T11:21:26.117Z,96898.66
2022-10-05T11:24:56.830Z,96898.66
2022-10-05T11:28:37.986Z,96891.69
2022-10-05T11:32:56.651Z,96891.22
2022-10-05T11:36:25.832Z,96898.25
2022-10-05T11:39:37.067Z,96894.13
2022-10-05T11:43:32.301Z,96877.13
2022-10-05T11:47:00.319Z,96881.47
2022-10-05T11:50:32.424Z,96879.06
2022-10-05T11:54:07.904Z,96880.72
2022-10-05T11:57:24.049Z,96882.75
2022-10-05T12:00:36.187Z,96877.44
2022-10-05T12:03:38.350Z,96863.28
2022-10-05T12:07:04.683Z,96857.00
2022-10-05T12:10:42.948Z,96863.13
2022-10-05T12:14:20.229Z,96856.59
2022-10-05T12:17:42.450Z,96849.91
2022-10-05T12:21:22.911Z,96853.97
2022-10-05T12:24:28.604Z,96846.72
2022-10-05T12:27:28.175Z,96833.72
2022-10-05T12:30:58.494Z,96842.97
2022-10-05T12:34:26.994Z,96845.72
2022-10-05T12:38:11.463Z,96841.97
2022-10-05T12:41:28.738Z,96839.53
2022-10-05T12:45:22.587Z,96829.78
2022-10-05T12:48:37.596Z,96838.63
2022-10-05T12:52:14.912Z,96826.97
2022-10-05T12:55:26.150Z,96830.22
2022-10-05T12:58:47.108Z,96838.56
2022-10-05T13:01:58.826Z,96835.28
2022-10-05T13:05:03.567Z,96836.56
2022-10-05T13:08:35.343Z,96825.06
2022-10-05T13:11:51.640Z,96822.69
2022-10-05T13:15:10.454Z,96819.00
2022-10-05T13:18:25.353Z,96814.94
2022-10-05T13:22:01.473Z,96812.03
2022-10-05T13:25:49.147Z,96817.09
2022-10-05T13:29:00.415Z,96810.66
2022-10-05T13:32:12.566Z,96803.22
2022-10-05T13:35:24.629Z,96802.75
2022-10-05T13:38:36.963Z,96797.66
2022-10-05T13:42:13.185Z,96797.00
2022-10-05T13:45:21.299Z,96797.72
2022-10-05T13:49:14.650Z,96803.19
2022-10-05T13:52:30.467Z,96803.56
2022-10-05T13:55:54.411Z,96796.78
2022-10-05T13:59:12.254Z,96808.97
2022-10-05T14:02:16.607Z,96796.88
2022-10-05T14:05:27.020Z,96797.66
2022-10-05T14:08:30.054Z,96806.28
2022-10-05T14:11:36.596Z,96795.50
2022-10-05T14:14:51.888Z,96801.03
2022-10-05T14:17:51.219Z,96793.63
2022-10-05T14:21:08.513Z,96792.16
2022-10-05T14:24:46.635Z,96786.94
2022-10-05T14:28:43.542Z,96795.94
2022-10-05T14:32:14.874Z,96788.06
2022-10-05T14:35:17.118Z,96786.31
2022-10-05T14:38:35.532Z,96786.47
2022-10-05T14:41:37.634Z,96785.72
2022-10-05T14:44:34.558Z,96791.59
2022-10-05T14:47:32.080Z,96789.81
2022-10-05T14:50:31.354Z,96793.75
2022-10-05T14:53:43.627Z,96793.97
2022-10-05T14:56:51.088Z,96789.34
2022-10-05T14:59:50.964Z,96784.63
2022-10-05T15:03:27.290Z,96778.50
2022-10-05T15:07:04.200Z,96779.53
2022-10-05T15:10:29.439Z,96779.78
2022-10-05T15:13:36.800Z,96772.44
2022-10-05T15:16:39.219Z,96778.25
2022-10-05T15:20:06.202Z,96776.16
2022-10-05T15:23:40.079Z,96776.03
2022-10-05T15:27:01.021Z,96773.66
2022-10-05T15:30:18.397Z,96771.50
2022-10-05T15:33:37.301Z,96768.63
2022-10-05T15:36:47.898Z,96767.69
2022-10-05T15:39:58.218Z,96764.66
2022-10-05T15:43:11.844Z,96768.72
2022-10-05T15:46:37.988Z,96764.63
2022-10-05T15:50:09.964Z,96770.94
2022-10-05T15:53:26.017Z,96758.31
2022-10-05T15:56:38.817Z,96754.03
2022-10-05T15:59:58.532Z,96757.66
2022-10-05T16:03:26.281Z,96756.38
2022-10-05T16:07:01.278Z,96760.66
2022-10-05T16:10:19.778Z,96760.78
2022-10-05T16:13:41.400Z,96765.81
2022-10-05T16:16:59.523Z,96772.09
2022-10-05T16:20:28.873Z,96764.44
2022-10-05T16:24:00.174Z,96760.13
2022-10-05T16:27:10.435Z,96765.44
2022-10-05T16:30:18.244Z,96774.00
2022-10-05T16:33:29.115Z,96764.66
2022-10-05T16:37:02.310Z,96776.97
2022-10-05T16:40:20.338Z,96780.13
2022-10-05T16:43:51.809Z,96770.91
2022-10-05T16:47:04.124Z,96782.00
2022-10-05T16:50:15.873Z,96775.47
2022-10-05T16:53:24.808Z,96791.94
2022-10-05T16:56:30.096Z,96789.69
2022-10-05T17:00:00.682Z,96792.13
2022-10-05T17:03:27.454Z,96795.19
2022-10-05T17:07:03.306Z,96794.91
2022-10-05T17:10:16.253Z,96802.03
2022-10-05T17:13:53.637Z,96799.00
2022-10-05T17:17:48.979Z,96809.94
2022-10-05T17:21:22.302Z,96799.88
2022-10-05T17:24:29.962Z,96807.59
2022-10-05T17:27:51.021Z,96807.56
2022-10-05T17:30:58.592Z,96811.09
2022-10-05T17:34:13.458Z,96820.78
2022-10-05T17:37:26.856Z,96808.31
2022-10-05T17:40:29.529Z,96819.53
2022-10-05T17:43:30.738Z,96802.31
2022-10-05T17:46:48.250Z,96805.31
2022-10-05T17:50:14.231Z,96804.88
2022-10-05T17:53:53.963Z,96808.09
2022-10-05T17:56:50.676Z,96820.78
2022-10-05T18:00:00.351Z,96809.25
2022-10-05T18:02:58.238Z,96819.75
2022-10-05T18:06:38.337Z,96821.78
2022-10-05T18:09:37.635Z,96821.47
2022-10-05T18:13:20.146Z,96817.59
2022-10-05T18:17:02.345Z,96826.75
2022-10-05T18:20:32.357Z,96829.09
2022-10-05T18:23:35.870Z,96842.13
2022-10-05T18:27:26.413Z,96845.09
2022-10-05T18:30:31.024Z,96855.00
2022-10-05T18:33:42.889Z,96850.09
2022-10-05T18:37:03.877Z,96848.38
2022-10-05T18:40:30.098Z,96858.56
2022-10-05T18:43:47.016Z,96850.75
2022-10-05T18:47:29.456Z,96861.41
2022-10-05T18:50:26.163Z,96863.59
2022-10-05T18:54:05.572Z,96869.50
2022-10-05T18:57:32.977Z,96871.75
2022-10-05T19:01:19.780Z,96873.00
2022-10-05T19:05:46.915Z,96872.53
2022-10-05T19:09:21.556Z,96875.53
2022-10-05T19:12:44.193Z,96880.41
2022-10-05T19:16:14.137Z,96885.47
2022-10-05T19:19:51.065Z,96884.72
2022-10-05T19:23:12.521Z,96889.88
2022-10-05T19:26:15.608Z,96899.34
2022-10-05T19:30:16.352Z,96905.31
2022-10-05T19:34:01.890Z,96894.97
2022-10-05T19:37:42.313Z,96903.78
2022-10-05T19:40:45.225Z,96909.03
2022-10-05T19:44:07.385Z,96907.75
2022-10-05T19:47:41.140Z,96906.03
2022-10-05T19:50:39.790Z,96909.41
2022-10-05T19:53:44.208Z,96918.22
2022-10-05T19:57:02.833Z,96925.25
2022-10-05T20:00:00.072Z,96918.63
2022-10-05T20:03:16.900Z,96927.63
2022-10-05T20:06:13.895Z,96924.00
2022-10-05T20:09:21.739Z,96923.69
2022-10-05T20:12:22.503Z,96919.94
2022-10-05T20:15:43.291Z,96938.44
2022-10-05T20:19:01.483Z,96937.97
2022-10-05T20:22:00.403Z,96935.66
2022-10-05T20:25:02.525Z,96929.44
2022-10-05T20:27:59.507Z,96949.84
2022-10-05T20:30:56.439Z,96953.75
2022-10-05T20:33:53.281Z,96963.53
2022-10-05T20:36:50.940Z,96967.97
2022-10-05T20:39:48.011Z,96965.19
2022-10-05T20:42:44.879Z,96973.09
2022-10-05T20:45:43.349Z,96973.09
2022-10-05T20:48:40.173Z,96977.41
2022-10-05T20:51:38.784Z,96989.66
2022-10-05T20:54:37.645Z,97000.72
2022-10-05T20:57:35.138Z,96994.81
2022-10-05T21:00:51.970Z,96996.63
2022-10-05T21:03:50.628Z,97009.31
2022-10-05T21:06:47.639Z,96999.75
2022-10-05T21:09:46.538Z,97014.91
2022-10-05T21:12:43.719Z,97014.44
2022-10-05T21:15:40.853Z,97014.06
2022-10-05T21:18:38.464Z,97017.13
2022-10-05T21:21:36.733Z,97008.66
2022-10-05T21:24:35.944Z,97002.38
2022-10-05T21:27:32.775Z,97011.13
2022-10-05T21:30:29.597Z,97009.53
2022-10-05T21:33:26.901Z,97002.72
2022-10-05T21:36:24.839Z,97004.19
2022-10-05T21:39:21.959Z,97003.41
2022-10-05T21:42:18.767Z,97011.13
2022-10-05T21:45:15.677Z,97013.03
2022-10-05T21:48:14.865Z,97006.09
2022-10-05T21:51:16.605Z,97010.97
2022-10-05T21:54:18.967Z,97020.91
2022-10-05T21:57:15.948Z,97013.28
2022-10-05T22:00:16.332Z,97017.09
2022-10-05T22:03:13.244Z,97009.16
2022-10-05T22:06:10.382Z,97013.91
2022-10-05T22:09:07.286Z,97026.91
2022-10-05T22:12:05.456Z,97037.53
2022-10-05T22:15:03.008Z,97032.16
2022-10-05T22:18:00.065Z,97028.06
2022-10-05T22:20:56.938Z,97043.41
2022-10-05T22:23:53.819Z,97042.63
2022-10-05T22:26:51.582Z,97046.53
2022-10-05T22:29:48.961Z,97054.28
2022-10-05T22:32:45.864Z,97058.72
2022-10-05T22:35:42.892Z,97058.41
2022-10-05T22:38:39.851Z,97053.50
2022-10-05T22:41:36.677Z,97060.25
2022-10-05T22:44:34.737Z,97047.75
2022-10-05T22:47:31.748Z,97046.16
2022-10-05T22:50:28.617Z,97057.63
2022-10-05T22:53:25.469Z,97060.38
2022-10-05T22:56:22.357Z,97060.31
2022-10-05T22:59:19.212Z,97059.72
2022-10-05T23:02:17.931Z,97076.59
2022-10-05T23:05:17.049Z,97068.28
2022-10-05T23:08:13.874Z,97070.13
2022-10-05T23:11:22.572Z,97081.03
2022-10-05T23:14:19.900Z,97081.34
2022-10-05T23:17:21.070Z,97077.28
2022-10-05T23:20:18.067Z,97078.81
2022-10-05T23:23:14.870Z,97086.00
2022-10-05T23:26:12.143Z,97099.66
2022-10-05T23:29:09.950Z,97099.78
2022-10-05T23:32:07.932Z,97100.38
2022-10-05T23:35:05.747Z,97097.13
2022-10-05T23:38:02.573Z,97101.31
2022-10-05T23:40:59.846Z,97103.69
2022-10-05T23:43:56.778Z,97104.84
2022-10-05T23:46:53.599Z,97109.66
2022-10-05T23:49:50.449Z,97106.66
2022-10-05T23:52:47.314Z,97110.63
2022-10-05T23:55:44.471Z,97121.59
2022-10-05T23:58:41.486Z,97109.00
